createdAt,value
2022-07-31T00:00:32.794Z,7.03
2022-07-31T00:05:31.202Z,8.63
2022-07-31T00:08:00.621Z,8.43
2022-07-31T00:12:58.397Z,6.25
2022-07-31T00:15:28.701Z,8.32
2022-07-31T00:17:58.246Z,7.25
2022-07-31T00:20:27.327Z,5.75
2022-07-31T00:22:57.523Z,7.00
2022-07-31T00:25:26.459Z,5.93
2022-07-31T00:27:55.200Z,5.75
2022-07-31T00:30:24.085Z,9.18
2022-07-31T00:32:55.085Z,7.35
2022-07-31T00:35:24.331Z,5.57
2022-07-31T00:43:18.479Z,7.00
2022-07-31T00:45:56.270Z,6.80
2022-07-31T00:48:29.455Z,7.78
2022-07-31T00:50:58.711Z,7.88
2022-07-31T00:53:27.995Z,6.18
2022-07-31T00:55:57.589Z,6.25
2022-07-31T00:58:26.705Z,6.65
2022-07-31T01:00:55.750Z,7.32
2022-07-31T01:03:24.997Z,6.90
2022-07-31T01:05:55.285Z,6.95
2022-07-31T01:08:24.113Z,6.88
2022-07-31T01:10:59.497Z,9.05
2022-07-31T01:13:36.794Z,8.10
2022-07-31T01:16:08.377Z,7.50
2022-07-31T01:18:40.863Z,7.93
2022-07-31T01:21:17.787Z,7.22
2022-07-31T01:24:13.649Z,8.45
2022-07-31T01:27:07.659Z,7.57
2022-07-31T01:29:43.670Z,8.65
2022-07-31T01:32:17.869Z,7.13
2022-07-31T01:34:53.125Z,7.25
2022-07-31T01:37:27.435Z,8.18
2022-07-31T01:40:02.566Z,7.68
2022-07-31T01:42:33.333Z,6.15
2022-07-31T01:45:05.346Z,7.05
2022-07-31T01:47:36.756Z,7.70
2022-07-31T01:50:07.650Z,9.07
2022-07-31T01:52:41.088Z,9.00
2022-07-31T01:55:13.166Z,8.50
2022-07-31T01:57:44.103Z,8.93
2022-07-31T02:00:33.912Z,10.98
2022-07-31T02:03:09.637Z,7.03
2022-07-31T02:05:43.488Z,6.15
2022-07-31T02:08:15.003Z,5.72
2022-07-31T02:10:47.934Z,6.60
2022-07-31T02:13:19.091Z,7.07
2022-07-31T02:15:50.330Z,8.90
2022-07-31T02:18:23.330Z,5.68
2022-07-31T02:21:12.590Z,5.78
2022-07-31T02:23:41.571Z,6.03
2022-07-31T02:26:11.381Z,3.80
2022-07-31T02:28:43.912Z,5.35
2022-07-31T02:31:16.384Z,4.25
2022-07-31T02:33:50.278Z,6.50
2022-07-31T02:36:21.366Z,5.93
2022-07-31T02:38:51.867Z,5.30
2022-07-31T02:41:21.440Z,6.72
2022-07-31T02:43:51.320Z,6.72
2022-07-31T02:46:26.597Z,5.65
2022-07-31T02:48:56.681Z,5.75
2022-07-31T02:51:25.799Z,6.78
2022-07-31T02:53:55.904Z,7.15
2022-07-31T02:56:29.846Z,5.13
2022-07-31T02:58:59.009Z,5.70
2022-07-31T03:01:39.115Z,5.57
2022-07-31T03:04:08.668Z,6.30
2022-07-31T03:06:37.723Z,5.80
2022-07-31T03:09:06.669Z,5.43
2022-07-31T03:11:37.493Z,5.68
2022-07-31T03:14:08.889Z,5.00
2022-07-31T03:16:40.436Z,4.65
2022-07-31T03:19:10.916Z,4.78
2022-07-31T03:21:40.055Z,9.63
2022-07-31T03:24:10.708Z,5.40
2022-07-31T03:26:39.953Z,6.38
2022-07-31T03:29:39.172Z,6.28
2022-07-31T03:31:59.228Z,6.22
2022-07-31T03:34:28.428Z,5.80
2022-07-31T03:36:57.176Z,5.28
2022-07-31T03:39:26.748Z,4.45
2022-07-31T03:42:00.907Z,6.82
2022-07-31T03:44:30.551Z,5.60
2022-07-31T03:49:31.554Z,6.53
2022-07-31T03:52:01.171Z,5.03
2022-07-31T03:54:30.738Z,7.40
2022-07-31T03:57:18.055Z,5.30
2022-07-31T03:59:51.385Z,5.75
2022-07-31T04:02:22.598Z,6.55
2022-07-31T04:04:56.131Z,6.57
2022-07-31T04:07:25.227Z,5.53
2022-07-31T04:09:54.110Z,5.60
2022-07-31T04:12:23.089Z,7.68
2022-07-31T04:14:52.008Z,5.63
2022-07-31T04:19:50.982Z,6.75
2022-07-31T04:22:19.746Z,6.75
2022-07-31T04:24:49.825Z,5.57
2022-07-31T04:27:27.721Z,5.88
2022-07-31T04:29:57.891Z,5.00
2022-07-31T04:32:28.336Z,5.95
2022-07-31T04:35:04.255Z,6.47
2022-07-31T04:37:34.137Z,4.90
2022-07-31T04:40:03.296Z,5.75
2022-07-31T04:42:32.869Z,4.68
2022-07-31T04:45:02.646Z,5.55
2022-07-31T04:47:32.938Z,4.65
2022-07-31T04:50:01.740Z,4.28
2022-07-31T04:52:31.071Z,7.18
2022-07-31T04:55:05.950Z,5.57
2022-07-31T04:57:34.854Z,5.45
2022-07-31T05:00:03.732Z,5.47
2022-07-31T05:02:36.349Z,5.13
2022-07-31T05:05:06.937Z,5.38
2022-07-31T05:07:40.461Z,5.80
2022-07-31T05:10:30.810Z,4.47
2022-07-31T05:12:59.747Z,6.53
2022-07-31T05:15:29.172Z,6.50
2022-07-31T05:18:00.235Z,4.25
2022-07-31T05:20:51.640Z,4.53
2022-07-31T05:23:30.111Z,4.05
2022-07-31T05:28:51.001Z,5.63
2022-07-31T05:31:21.596Z,4.97
2022-07-31T05:33:53.443Z,7.18
2022-07-31T05:36:22.601Z,4.95
2022-07-31T05:38:51.373Z,5.68
2022-07-31T05:41:20.214Z,6.28
2022-07-31T05:44:04.417Z,5.38
2022-07-31T05:46:43.440Z,5.65
2022-07-31T05:49:13.761Z,7.10
2022-07-31T05:51:45.684Z,4.88
2022-07-31T05:54:15.216Z,5.55
2022-07-31T05:57:02.350Z,4.15
2022-07-31T05:59:36.241Z,4.38
2022-07-31T06:02:06.281Z,3.60
2022-07-31T06:04:53.513Z,4.85
2022-07-31T06:07:22.489Z,3.65
2022-07-31T06:09:51.653Z,3.97
2022-07-31T06:17:22.582Z,6.03
2022-07-31T06:19:53.596Z,6.82
2022-07-31T06:22:22.791Z,5.70
2022-07-31T06:24:51.645Z,10.27
2022-07-31T06:27:33.452Z,10.80
2022-07-31T06:30:04.096Z,12.35
2022-07-31T06:32:33.499Z,11.90
2022-07-31T06:35:05.414Z,14.90
2022-07-31T06:37:42.517Z,18.70
2022-07-31T06:40:13.027Z,14.60
2022-07-31T06:42:46.131Z,12.80
2022-07-31T06:45:25.198Z,8.00
2022-07-31T06:48:23.017Z,9.32
2022-07-31T06:51:29.567Z,7.03
2022-07-31T06:53:54.616Z,6.50
2022-07-31T06:56:23.487Z,5.53
2022-07-31T06:58:52.453Z,7.35
2022-07-31T07:01:21.328Z,6.28
2022-07-31T07:08:51.233Z,5.20
2022-07-31T07:11:22.544Z,6.18
2022-07-31T07:13:52.191Z,4.32
2022-07-31T07:16:21.605Z,5.28
2022-07-31T07:18:51.174Z,4.65
2022-07-31T07:21:21.474Z,3.40
2022-07-31T07:23:50.442Z,3.13
2022-07-31T07:26:45.405Z,2.13
2022-07-31T07:29:14.672Z,2.65
2022-07-31T07:31:43.482Z,2.63
2022-07-31T07:34:14.245Z,2.88
2022-07-31T07:36:44.849Z,2.90
2022-07-31T07:39:23.786Z,4.55
2022-07-31T07:41:53.575Z,3.58
2022-07-31T07:49:22.024Z,2.83
2022-07-31T07:52:19.437Z,2.55
2022-07-31T07:55:03.641Z,2.00
2022-07-31T07:58:01.334Z,1.48
2022-07-31T08:00:53.166Z,2.15
2022-07-31T08:03:49.288Z,4.53
